Terminal Aerodrome Forecast
Issued by NWS

Home | Current Version | Previous Version | Text Only | Print | Product List | Glossary On
Versions: 1 2 3 4 5 6 7 8 9 10 11 12 13 14 15 16 17 18 19 20 21 22 23 24 25 26 27
000
FTUS43 KDVN 232325
TAFCID
TAF
KCID 232325Z 2400/2424 VRB03KT P6SM SKC
     FM240600 12006KT P6SM SCT200
     FM241400 14011KT P6SM SCT080 BKN150
     FM241900 13013G20KT P6SM VCSH BKN060 OVC100=

USA.gov is the U.S. government's official web portal to all federal, state and local government web resources and services.